sensor_id;sensor_type;location;lat;lon;timestamp;P1;durP1;ratioP1;P2;durP2;ratioP2
58661;SDS011;44432;49.786;22.760;2023-11-21T00:00:47;5.10;;;3.10;;
58661;SDS011;44432;49.786;22.760;2023-11-21T00:03:36;5.50;;;2.80;;
58661;SDS011;44432;49.786;22.760;2023-11-21T00:06:05;6.00;;;3.20;;
58661;SDS011;44432;49.786;22.760;2023-11-21T00:08:35;4.90;;;3.20;;
58661;SDS011;44432;49.786;22.760;2023-11-21T00:11:04;6.00;;;3.40;;
58661;SDS011;44432;49.786;22.760;2023-11-21T00:13:33;5.80;;;3.20;;
58661;SDS011;44432;49.786;22.760;2023-11-21T00:16:01;5.50;;;3.60;;
58661;SDS011;44432;49.786;22.760;2023-11-21T00:18:31;4.40;;;3.00;;
58661;SDS011;44432;49.786;22.760;2023-11-21T00:20:59;5.20;;;3.80;;
58661;SDS011;44432;49.786;22.760;2023-11-21T00:23:27;4.50;;;3.30;;
58661;SDS011;44432;49.786;22.760;2023-11-21T00:25:55;5.10;;;3.10;;
58661;SDS011;44432;49.786;22.760;2023-11-21T00:28:24;4.50;;;2.70;;
58661;SDS011;44432;49.786;22.760;2023-11-21T00:30:53;4.90;;;3.00;;
58661;SDS011;44432;49.786;22.760;2023-11-21T00:33:21;7.20;;;3.10;;
58661;SDS011;44432;49.786;22.760;2023-11-21T00:35:49;6.00;;;3.40;;
58661;SDS011;44432;49.786;22.760;2023-11-21T00:38:17;4.70;;;3.20;;
58661;SDS011;44432;49.786;22.760;2023-11-21T00:40:46;4.90;;;2.80;;
58661;SDS011;44432;49.786;22.760;2023-11-21T00:43:15;4.90;;;3.20;;
58661;SDS011;44432;49.786;22.760;2023-11-21T00:45:43;5.30;;;3.70;;
58661;SDS011;44432;49.786;22.760;2023-11-21T00:48:11;5.60;;;2.80;;
58661;SDS011;44432;49.786;22.760;2023-11-21T00:50:40;4.10;;;2.80;;
58661;SDS011;44432;49.786;22.760;2023-11-21T00:53:08;5.20;;;3.00;;
58661;SDS011;44432;49.786;22.760;2023-11-21T00:55:37;4.60;;;3.20;;
58661;SDS011;44432;49.786;22.760;2023-11-21T00:58:06;4.80;;;3.10;;
58661;SDS011;44432;49.786;22.760;2023-11-21T01:00:35;4.40;;;3.00;;
58661;SDS011;44432;49.786;22.760;2023-11-21T01:03:06;5.30;;;3.00;;
58661;SDS011;44432;49.786;22.760;2023-11-21T01:05:35;5.90;;;2.90;;
58661;SDS011;44432;49.786;22.760;2023-11-21T01:08:04;5.40;;;3.20;;
58661;SDS011;44432;49.786;22.760;2023-11-21T01:10:32;4.50;;;3.20;;
58661;SDS011;44432;49.786;22.760;2023-11-21T01:13:01;4.80;;;3.10;;
58661;SDS011;44432;49.786;22.760;2023-11-21T01:15:32;8.20;;;3.60;;
58661;SDS011;44432;49.786;22.760;2023-11-21T01:18:00;4.50;;;3.10;;
58661;SDS011;44432;49.786;22.760;2023-11-21T01:20:30;3.80;;;2.90;;
58661;SDS011;44432;49.786;22.760;2023-11-21T01:22:59;4.20;;;2.80;;
58661;SDS011;44432;49.786;22.760;2023-11-21T01:25:27;6.70;;;4.00;;
58661;SDS011;44432;49.786;22.760;2023-11-21T01:27:56;3.40;;;2.90;;
58661;SDS011;44432;49.786;22.760;2023-11-21T01:30:24;5.10;;;3.60;;
58661;SDS011;44432;49.786;22.760;2023-11-21T01:32:52;4.80;;;3.60;;
58661;SDS011;44432;49.786;22.760;2023-11-21T01:35:20;5.50;;;4.00;;
58661;SDS011;44432;49.786;22.760;2023-11-21T01:37:49;6.00;;;4.00;;
58661;SDS011;44432;49.786;22.760;2023-11-21T01:40:17;5.80;;;4.00;;
58661;SDS011;44432;49.786;22.760;2023-11-21T01:42:45;7.20;;;4.70;;
58661;SDS011;44432;49.786;22.760;2023-11-21T01:45:14;9.50;;;5.90;;
58661;SDS011;44432;49.786;22.760;2023-11-21T01:47:43;6.90;;;4.60;;
58661;SDS011;44432;49.786;22.760;2023-11-21T01:50:13;7.10;;;4.00;;
58661;SDS011;44432;49.786;22.760;2023-11-21T01:52:43;6.00;;;3.90;;
58661;SDS011;44432;49.786;22.760;2023-11-21T01:55:12;5.30;;;3.50;;
58661;SDS011;44432;49.786;22.760;2023-11-21T01:57:45;7.00;;;3.90;;
58661;SDS011;44432;49.786;22.760;2023-11-21T02:00:14;5.30;;;3.70;;
58661;SDS011;44432;49.786;22.760;2023-11-21T02:02:43;4.90;;;3.60;;
58661;SDS011;44432;49.786;22.760;2023-11-21T02:05:12;5.50;;;3.60;;
58661;SDS011;44432;49.786;22.760;2023-11-21T02:07:41;5.10;;;3.80;;
58661;SDS011;44432;49.786;22.760;2023-11-21T02:10:10;5.40;;;3.60;;
58661;SDS011;44432;49.786;22.760;2023-11-21T02:12:41;4.80;;;3.60;;
58661;SDS011;44432;49.786;22.760;2023-11-21T02:15:11;3.80;;;3.00;;
58661;SDS011;44432;49.786;22.760;2023-11-21T02:17:42;5.30;;;3.80;;
58661;SDS011;44432;49.786;22.760;2023-11-21T02:20:11;5.50;;;3.70;;
58661;SDS011;44432;49.786;22.760;2023-11-21T02:22:42;5.20;;;3.80;;
58661;SDS011;44432;49.786;22.760;2023-11-21T02:25:12;5.50;;;4.20;;
58661;SDS011;44432;49.786;22.760;2023-11-21T02:27:41;5.80;;;3.60;;
58661;SDS011;44432;49.786;22.760;2023-11-21T02:30:10;5.20;;;4.00;;
58661;SDS011;44432;49.786;22.760;2023-11-21T02:32:40;5.50;;;4.20;;
58661;SDS011;44432;49.786;22.760;2023-11-21T02:35:09;5.80;;;4.20;;
58661;SDS011;44432;49.786;22.760;2023-11-21T02:37:38;6.30;;;4.10;;
58661;SDS011;44432;49.786;22.760;2023-11-21T02:40:09;5.00;;;3.50;;
58661;SDS011;44432;49.786;22.760;2023-11-21T02:42:39;5.20;;;3.30;;
58661;SDS011;44432;49.786;22.760;2023-11-21T02:45:09;4.90;;;3.40;;
58661;SDS011;44432;49.786;22.760;2023-11-21T02:47:39;4.50;;;2.80;;
58661;SDS011;44432;49.786;22.760;2023-11-21T02:50:08;4.60;;;3.00;;
58661;SDS011;44432;49.786;22.760;2023-11-21T02:52:37;4.60;;;3.30;;
58661;SDS011;44432;49.786;22.760;2023-11-21T02:55:07;4.00;;;2.90;;
58661;SDS011;44432;49.786;22.760;2023-11-21T02:57:36;4.90;;;3.20;;
58661;SDS011;44432;49.786;22.760;2023-11-21T03:00:05;4.70;;;3.10;;
58661;SDS011;44432;49.786;22.760;2023-11-21T03:02:39;5.50;;;3.20;;
58661;SDS011;44432;49.786;22.760;2023-11-21T03:05:08;5.10;;;3.20;;
58661;SDS011;44432;49.786;22.760;2023-11-21T03:07:37;3.60;;;2.70;;
58661;SDS011;44432;49.786;22.760;2023-11-21T03:10:06;5.00;;;3.00;;
58661;SDS011;44432;49.786;22.760;2023-11-21T03:12:37;3.80;;;2.70;;
58661;SDS011;44432;49.786;22.760;2023-11-21T03:15:07;4.40;;;2.90;;
58661;SDS011;44432;49.786;22.760;2023-11-21T03:17:36;5.00;;;2.90;;
58661;SDS011;44432;49.786;22.760;2023-11-21T03:20:06;4.80;;;3.00;;
58661;SDS011;44432;49.786;22.760;2023-11-21T03:22:37;3.90;;;2.50;;
58661;SDS011;44432;49.786;22.760;2023-11-21T03:25:06;3.10;;;2.40;;
58661;SDS011;44432;49.786;22.760;2023-11-21T03:27:37;3.90;;;2.30;;
58661;SDS011;44432;49.786;22.760;2023-11-21T03:30:07;3.80;;;2.60;;
58661;SDS011;44432;49.786;22.760;2023-11-21T03:32:38;4.10;;;2.60;;
58661;SDS011;44432;49.786;22.760;2023-11-21T03:35:07;5.10;;;2.70;;
58661;SDS011;44432;49.786;22.760;2023-11-21T03:37:36;3.60;;;2.60;;
58661;SDS011;44432;49.786;22.760;2023-11-21T03:40:08;5.60;;;3.20;;
58661;SDS011;44432;49.786;22.760;2023-11-21T03:42:39;5.00;;;3.20;;
58661;SDS011;44432;49.786;22.760;2023-11-21T03:45:08;4.40;;;3.20;;
58661;SDS011;44432;49.786;22.760;2023-11-21T03:47:38;4.70;;;2.90;;
58661;SDS011;44432;49.786;22.760;2023-11-21T03:50:07;4.30;;;3.10;;
58661;SDS011;44432;49.786;22.760;2023-11-21T03:52:37;3.70;;;2.50;;
58661;SDS011;44432;49.786;22.760;2023-11-21T03:55:05;3.90;;;2.60;;
58661;SDS011;44432;49.786;22.760;2023-11-21T03:57:34;4.30;;;3.00;;
58661;SDS011;44432;49.786;22.760;2023-11-21T04:00:03;4.70;;;3.00;;
58661;SDS011;44432;49.786;22.760;2023-11-21T04:02:35;6.00;;;3.40;;
58661;SDS011;44432;49.786;22.760;2023-11-21T04:05:04;6.40;;;3.70;;
58661;SDS011;44432;49.786;22.760;2023-11-21T04:07:33;7.60;;;4.30;;
58661;SDS011;44432;49.786;22.760;2023-11-21T04:10:02;8.60;;;4.60;;
58661;SDS011;44432;49.786;22.760;2023-11-21T04:12:34;7.10;;;4.00;;
58661;SDS011;44432;49.786;22.760;2023-11-21T04:15:02;6.60;;;3.90;;
58661;SDS011;44432;49.786;22.760;2023-11-21T04:17:31;5.50;;;3.70;;
58661;SDS011;44432;49.786;22.760;2023-11-21T04:19:59;6.90;;;3.60;;
58661;SDS011;44432;49.786;22.760;2023-11-21T04:22:28;7.10;;;3.90;;
58661;SDS011;44432;49.786;22.760;2023-11-21T04:24:56;5.90;;;4.10;;
58661;SDS011;44432;49.786;22.760;2023-11-21T04:27:24;6.40;;;4.10;;
58661;SDS011;44432;49.786;22.760;2023-11-21T04:29:53;8.70;;;3.40;;
58661;SDS011;44432;49.786;22.760;2023-11-21T04:32:21;6.30;;;3.70;;
58661;SDS011;44432;49.786;22.760;2023-11-21T04:34:50;6.00;;;4.40;;
58661;SDS011;44432;49.786;22.760;2023-11-21T04:37:18;6.40;;;4.00;;
58661;SDS011;44432;49.786;22.760;2023-11-21T04:39:47;7.40;;;4.50;;
58661;SDS011;44432;49.786;22.760;2023-11-21T04:42:16;8.00;;;4.50;;
58661;SDS011;44432;49.786;22.760;2023-11-21T04:44:44;7.20;;;4.50;;
58661;SDS011;44432;49.786;22.760;2023-11-21T04:47:12;6.80;;;4.00;;
58661;SDS011;44432;49.786;22.760;2023-11-21T04:49:42;8.30;;;4.40;;
58661;SDS011;44432;49.786;22.760;2023-11-21T04:52:13;5.80;;;4.20;;
58661;SDS011;44432;49.786;22.760;2023-11-21T04:54:41;6.60;;;4.10;;
58661;SDS011;44432;49.786;22.760;2023-11-21T04:57:10;7.70;;;4.80;;
58661;SDS011;44432;49.786;22.760;2023-11-21T04:59:38;6.90;;;4.20;;
58661;SDS011;44432;49.786;22.760;2023-11-21T05:02:07;14.10;;;7.30;;
58661;SDS011;44432;49.786;22.760;2023-11-21T05:04:35;14.50;;;8.10;;
58661;SDS011;44432;49.786;22.760;2023-11-21T05:07:03;10.90;;;5.40;;
58661;SDS011;44432;49.786;22.760;2023-11-21T05:09:32;17.10;;;9.50;;
58661;SDS011;44432;49.786;22.760;2023-11-21T05:12:01;12.70;;;5.20;;
58661;SDS011;44432;49.786;22.760;2023-11-21T05:14:30;10.90;;;5.30;;
58661;SDS011;44432;49.786;22.760;2023-11-21T05:16:58;7.90;;;4.80;;
58661;SDS011;44432;49.786;22.760;2023-11-21T05:19:27;6.70;;;3.90;;
58661;SDS011;44432;49.786;22.760;2023-11-21T05:21:55;7.30;;;3.90;;
58661;SDS011;44432;49.786;22.760;2023-11-21T05:24:25;9.30;;;7.30;;
58661;SDS011;44432;49.786;22.760;2023-11-21T05:26:54;9.40;;;6.20;;
58661;SDS011;44432;49.786;22.760;2023-11-21T05:29:23;8.30;;;5.50;;
58661;SDS011;44432;49.786;22.760;2023-11-21T05:31:52;8.50;;;4.90;;
58661;SDS011;44432;49.786;22.760;2023-11-21T05:34:20;19.50;;;13.80;;
58661;SDS011;44432;49.786;22.760;2023-11-21T05:36:50;7.00;;;4.40;;
58661;SDS011;44432;49.786;22.760;2023-11-21T05:39:20;8.30;;;5.80;;
58661;SDS011;44432;49.786;22.760;2023-11-21T05:41:48;13.00;;;7.40;;
58661;SDS011;44432;49.786;22.760;2023-11-21T05:44:17;10.50;;;6.80;;
58661;SDS011;44432;49.786;22.760;2023-11-21T05:46:45;9.50;;;5.20;;
58661;SDS011;44432;49.786;22.760;2023-11-21T05:49:13;11.50;;;6.70;;
58661;SDS011;44432;49.786;22.760;2023-11-21T05:51:42;16.00;;;12.20;;
58661;SDS011;44432;49.786;22.760;2023-11-21T05:54:12;18.50;;;15.00;;
58661;SDS011;44432;49.786;22.760;2023-11-21T05:56:40;56.30;;;35.40;;
58661;SDS011;44432;49.786;22.760;2023-11-21T05:59:08;36.60;;;20.80;;
58661;SDS011;44432;49.786;22.760;2023-11-21T06:01:37;34.90;;;21.00;;
58661;SDS011;44432;49.786;22.760;2023-11-21T06:04:05;50.40;;;29.50;;
58661;SDS011;44432;49.786;22.760;2023-11-21T06:06:34;31.80;;;21.20;;
58661;SDS011;44432;49.786;22.760;2023-11-21T06:09:03;31.20;;;17.50;;
58661;SDS011;44432;49.786;22.760;2023-11-21T06:11:32;49.90;;;23.70;;
58661;SDS011;44432;49.786;22.760;2023-11-21T06:14:01;20.50;;;11.40;;
58661;SDS011;44432;49.786;22.760;2023-11-21T06:16:29;27.40;;;16.80;;
58661;SDS011;44432;49.786;22.760;2023-11-21T06:18:58;27.50;;;18.00;;
58661;SDS011;44432;49.786;22.760;2023-11-21T06:21:26;20.70;;;13.90;;
58661;SDS011;44432;49.786;22.760;2023-11-21T06:23:55;23.80;;;14.80;;
58661;SDS011;44432;49.786;22.760;2023-11-21T06:26:24;14.30;;;10.00;;
58661;SDS011;44432;49.786;22.760;2023-11-21T06:28:53;8.70;;;6.30;;
58661;SDS011;44432;49.786;22.760;2023-11-21T06:31:23;12.20;;;9.30;;
58661;SDS011;44432;49.786;22.760;2023-11-21T06:33:51;12.70;;;8.90;;
58661;SDS011;44432;49.786;22.760;2023-11-21T06:36:20;12.00;;;8.00;;
58661;SDS011;44432;49.786;22.760;2023-11-21T06:38:49;12.00;;;6.50;;
58661;SDS011;44432;49.786;22.760;2023-11-21T06:41:17;16.60;;;12.20;;
58661;SDS011;44432;49.786;22.760;2023-11-21T06:43:46;13.20;;;10.10;;
58661;SDS011;44432;49.786;22.760;2023-11-21T06:46:14;10.10;;;6.80;;
58661;SDS011;44432;49.786;22.760;2023-11-21T06:48:42;12.80;;;9.00;;
58661;SDS011;44432;49.786;22.760;2023-11-21T06:51:11;16.90;;;12.00;;
58661;SDS011;44432;49.786;22.760;2023-11-21T06:53:40;13.30;;;8.60;;
58661;SDS011;44432;49.786;22.760;2023-11-21T06:56:15;6.70;;;4.50;;
58661;SDS011;44432;49.786;22.760;2023-11-21T06:58:44;12.20;;;7.40;;
58661;SDS011;44432;49.786;22.760;2023-11-21T07:01:13;10.20;;;5.90;;
58661;SDS011;44432;49.786;22.760;2023-11-21T07:03:42;14.50;;;9.70;;
58661;SDS011;44432;49.786;22.760;2023-11-21T07:06:10;22.90;;;16.70;;
58661;SDS011;44432;49.786;22.760;2023-11-21T07:08:39;33.20;;;27.50;;
58661;SDS011;44432;49.786;22.760;2023-11-21T07:11:08;81.90;;;63.80;;
58661;SDS011;44432;49.786;22.760;2023-11-21T07:13:36;76.20;;;52.20;;
58661;SDS011;44432;49.786;22.760;2023-11-21T07:16:05;94.60;;;44.40;;
58661;SDS011;44432;49.786;22.760;2023-11-21T07:18:34;68.10;;;33.00;;
58661;SDS011;44432;49.786;22.760;2023-11-21T07:21:03;53.70;;;26.10;;
58661;SDS011;44432;49.786;22.760;2023-11-21T07:23:32;41.90;;;20.40;;
58661;SDS011;44432;49.786;22.760;2023-11-21T07:26:00;26.40;;;20.00;;
58661;SDS011;44432;49.786;22.760;2023-11-21T07:28:29;22.50;;;16.60;;
58661;SDS011;44432;49.786;22.760;2023-11-21T07:30:57;16.20;;;11.20;;
58661;SDS011;44432;49.786;22.760;2023-11-21T07:33:26;21.60;;;14.90;;
58661;SDS011;44432;49.786;22.760;2023-11-21T07:35:55;21.30;;;16.90;;
58661;SDS011;44432;49.786;22.760;2023-11-21T07:38:23;22.40;;;18.40;;
58661;SDS011;44432;49.786;22.760;2023-11-21T07:40:51;24.30;;;16.90;;
58661;SDS011;44432;49.786;22.760;2023-11-21T07:43:20;19.10;;;12.10;;
58661;SDS011;44432;49.786;22.760;2023-11-21T07:45:48;25.30;;;22.70;;
58661;SDS011;44432;49.786;22.760;2023-11-21T07:48:17;52.50;;;41.20;;
58661;SDS011;44432;49.786;22.760;2023-11-21T07:50:45;34.90;;;27.70;;
58661;SDS011;44432;49.786;22.760;2023-11-21T07:53:14;35.20;;;25.40;;
58661;SDS011;44432;49.786;22.760;2023-11-21T07:55:42;26.20;;;16.60;;
58661;SDS011;44432;49.786;22.760;2023-11-21T07:58:11;15.60;;;10.20;;
58661;SDS011;44432;49.786;22.760;2023-11-21T08:00:40;10.20;;;6.50;;
58661;SDS011;44432;49.786;22.760;2023-11-21T08:03:08;16.10;;;8.40;;
58661;SDS011;44432;49.786;22.760;2023-11-21T08:05:38;12.30;;;7.80;;
58661;SDS011;44432;49.786;22.760;2023-11-21T08:08:06;12.20;;;8.10;;
58661;SDS011;44432;49.786;22.760;2023-11-21T08:10:35;23.90;;;14.50;;
58661;SDS011;44432;49.786;22.760;2023-11-21T08:13:04;18.10;;;12.00;;
58661;SDS011;44432;49.786;22.760;2023-11-21T08:15:33;16.90;;;13.60;;
58661;SDS011;44432;49.786;22.760;2023-11-21T08:18:02;21.20;;;17.10;;
58661;SDS011;44432;49.786;22.760;2023-11-21T08:20:31;14.30;;;11.00;;
58661;SDS011;44432;49.786;22.760;2023-11-21T08:22:59;9.50;;;5.90;;
58661;SDS011;44432;49.786;22.760;2023-11-21T08:25:29;10.40;;;5.50;;
58661;SDS011;44432;49.786;22.760;2023-11-21T08:27:57;16.80;;;13.40;;
58661;SDS011;44432;49.786;22.760;2023-11-21T08:30:26;9.90;;;5.60;;
58661;SDS011;44432;49.786;22.760;2023-11-21T08:32:56;7.30;;;4.00;;
58661;SDS011;44432;49.786;22.760;2023-11-21T08:35:25;9.00;;;3.30;;
58661;SDS011;44432;49.786;22.760;2023-11-21T08:37:53;10.90;;;5.70;;
58661;SDS011;44432;49.786;22.760;2023-11-21T08:40:22;9.20;;;5.20;;
58661;SDS011;44432;49.786;22.760;2023-11-21T08:42:50;11.40;;;7.60;;
58661;SDS011;44432;49.786;22.760;2023-11-21T08:45:19;12.90;;;9.50;;
58661;SDS011;44432;49.786;22.760;2023-11-21T08:47:48;10.00;;;5.50;;
58661;SDS011;44432;49.786;22.760;2023-11-21T08:50:17;10.20;;;5.60;;
58661;SDS011;44432;49.786;22.760;2023-11-21T08:52:46;11.20;;;8.70;;
58661;SDS011;44432;49.786;22.760;2023-11-21T08:55:15;7.10;;;4.70;;
58661;SDS011;44432;49.786;22.760;2023-11-21T08:57:43;30.10;;;21.60;;
58661;SDS011;44432;49.786;22.760;2023-11-21T09:00:13;12.70;;;6.50;;
58661;SDS011;44432;49.786;22.760;2023-11-21T09:02:43;11.20;;;5.50;;
58661;SDS011;44432;49.786;22.760;2023-11-21T09:05:13;15.50;;;11.40;;
58661;SDS011;44432;49.786;22.760;2023-11-21T09:07:42;43.90;;;23.80;;
58661;SDS011;44432;49.786;22.760;2023-11-21T09:10:12;71.30;;;29.00;;
58661;SDS011;44432;49.786;22.760;2023-11-21T09:12:41;46.20;;;20.50;;
58661;SDS011;44432;49.786;22.760;2023-11-21T09:15:10;53.90;;;25.80;;
58661;SDS011;44432;49.786;22.760;2023-11-21T09:17:38;16.10;;;11.00;;
58661;SDS011;44432;49.786;22.760;2023-11-21T09:20:08;19.90;;;10.70;;
58661;SDS011;44432;49.786;22.760;2023-11-21T09:22:37;59.20;;;32.10;;
58661;SDS011;44432;49.786;22.760;2023-11-21T09:25:06;33.90;;;20.00;;
58661;SDS011;44432;49.786;22.760;2023-11-21T09:27:35;30.30;;;17.40;;
58661;SDS011;44432;49.786;22.760;2023-11-21T09:30:05;26.70;;;16.80;;
58661;SDS011;44432;49.786;22.760;2023-11-21T09:32:37;22.50;;;16.60;;
58661;SDS011;44432;49.786;22.760;2023-11-21T09:35:07;10.30;;;7.20;;
58661;SDS011;44432;49.786;22.760;2023-11-21T09:37:36;7.20;;;5.10;;
58661;SDS011;44432;49.786;22.760;2023-11-21T09:40:06;11.60;;;7.40;;
58661;SDS011;44432;49.786;22.760;2023-11-21T09:42:42;7.30;;;4.70;;
58661;SDS011;44432;49.786;22.760;2023-11-21T09:45:18;12.10;;;5.70;;
58661;SDS011;44432;49.786;22.760;2023-11-21T09:47:52;9.40;;;5.30;;
58661;SDS011;44432;49.786;22.760;2023-11-21T09:50:22;7.80;;;5.40;;
58661;SDS011;44432;49.786;22.760;2023-11-21T09:52:54;8.70;;;5.80;;
58661;SDS011;44432;49.786;22.760;2023-11-21T09:55:27;6.10;;;4.30;;
58661;SDS011;44432;49.786;22.760;2023-11-21T09:57:56;10.10;;;4.90;;
58661;SDS011;44432;49.786;22.760;2023-11-21T10:00:25;8.30;;;4.60;;
58661;SDS011;44432;49.786;22.760;2023-11-21T10:02:54;6.00;;;4.10;;
58661;SDS011;44432;49.786;22.760;2023-11-21T10:05:25;5.40;;;3.50;;
58661;SDS011;44432;49.786;22.760;2023-11-21T10:07:54;7.10;;;4.80;;
58661;SDS011;44432;49.786;22.760;2023-11-21T10:10:24;8.80;;;4.50;;
58661;SDS011;44432;49.786;22.760;2023-11-21T10:12:56;14.20;;;9.70;;
58661;SDS011;44432;49.786;22.760;2023-11-21T10:15:28;9.40;;;4.40;;
58661;SDS011;44432;49.786;22.760;2023-11-21T10:17:57;9.30;;;5.00;;
58661;SDS011;44432;49.786;22.760;2023-11-21T10:20:26;10.00;;;6.10;;
58661;SDS011;44432;49.786;22.760;2023-11-21T10:22:56;10.10;;;5.60;;
58661;SDS011;44432;49.786;22.760;2023-11-21T10:25:24;9.50;;;6.40;;
58661;SDS011;44432;49.786;22.760;2023-11-21T10:27:56;7.30;;;4.20;;
58661;SDS011;44432;49.786;22.760;2023-11-21T10:30:32;8.80;;;4.80;;
58661;SDS011;44432;49.786;22.760;2023-11-21T10:33:03;7.40;;;3.90;;
58661;SDS011;44432;49.786;22.760;2023-11-21T10:35:39;13.70;;;5.10;;
58661;SDS011;44432;49.786;22.760;2023-11-21T10:38:13;8.20;;;4.10;;
58661;SDS011;44432;49.786;22.760;2023-11-21T10:40:42;8.30;;;5.10;;
58661;SDS011;44432;49.786;22.760;2023-11-21T10:43:13;10.70;;;5.10;;
58661;SDS011;44432;49.786;22.760;2023-11-21T10:45:42;12.50;;;7.90;;
58661;SDS011;44432;49.786;22.760;2023-11-21T10:48:12;5.60;;;3.60;;
58661;SDS011;44432;49.786;22.760;2023-11-21T10:50:42;7.60;;;3.90;;
58661;SDS011;44432;49.786;22.760;2023-11-21T10:53:12;8.20;;;4.40;;
58661;SDS011;44432;49.786;22.760;2023-11-21T10:55:41;8.20;;;4.50;;
58661;SDS011;44432;49.786;22.760;2023-11-21T10:58:10;5.10;;;3.50;;
58661;SDS011;44432;49.786;22.760;2023-11-21T11:00:41;6.80;;;3.80;;
58661;SDS011;44432;49.786;22.760;2023-11-21T11:03:11;6.90;;;4.10;;
58661;SDS011;44432;49.786;22.760;2023-11-21T11:05:41;6.00;;;3.90;;
58661;SDS011;44432;49.786;22.760;2023-11-21T11:08:17;10.10;;;4.00;;
58661;SDS011;44432;49.786;22.760;2023-11-21T11:10:52;7.20;;;3.50;;
58661;SDS011;44432;49.786;22.760;2023-11-21T11:13:21;7.90;;;3.30;;
58661;SDS011;44432;49.786;22.760;2023-11-21T11:15:50;9.00;;;4.20;;
58661;SDS011;44432;49.786;22.760;2023-11-21T11:18:26;9.50;;;5.90;;
58661;SDS011;44432;49.786;22.760;2023-11-21T11:20:54;11.80;;;6.90;;
58661;SDS011;44432;49.786;22.760;2023-11-21T11:23:32;21.60;;;17.10;;
58661;SDS011;44432;49.786;22.760;2023-11-21T11:26:16;9.30;;;6.30;;
58661;SDS011;44432;49.786;22.760;2023-11-21T11:29:01;10.30;;;7.60;;
58661;SDS011;44432;49.786;22.760;2023-11-21T11:31:39;12.90;;;8.80;;
58661;SDS011;44432;49.786;22.760;2023-11-21T11:34:19;13.30;;;10.50;;
58661;SDS011;44432;49.786;22.760;2023-11-21T11:36:58;9.00;;;5.60;;
58661;SDS011;44432;49.786;22.760;2023-11-21T11:41:58;9.30;;;5.50;;
58661;SDS011;44432;49.786;22.760;2023-11-21T11:44:47;12.60;;;5.60;;
58661;SDS011;44432;49.786;22.760;2023-11-21T11:47:22;14.10;;;9.00;;
58661;SDS011;44432;49.786;22.760;2023-11-21T11:49:57;7.10;;;3.50;;
58661;SDS011;44432;49.786;22.760;2023-11-21T11:52:37;13.40;;;7.10;;
58661;SDS011;44432;49.786;22.760;2023-11-21T11:55:07;10.90;;;6.00;;
58661;SDS011;44432;49.786;22.760;2023-11-21T11:57:37;10.50;;;5.80;;
58661;SDS011;44432;49.786;22.760;2023-11-21T12:00:09;8.80;;;5.10;;
58661;SDS011;44432;49.786;22.760;2023-11-21T12:02:43;13.90;;;8.40;;
58661;SDS011;44432;49.786;22.760;2023-11-21T12:05:14;9.40;;;5.60;;
58661;SDS011;44432;49.786;22.760;2023-11-21T12:07:45;8.10;;;5.10;;
58661;SDS011;44432;49.786;22.760;2023-11-21T12:10:15;6.40;;;3.80;;
58661;SDS011;44432;49.786;22.760;2023-11-21T12:12:46;9.40;;;6.70;;
58661;SDS011;44432;49.786;22.760;2023-11-21T12:15:16;21.50;;;14.00;;
58661;SDS011;44432;49.786;22.760;2023-11-21T12:17:45;11.60;;;5.90;;
58661;SDS011;44432;49.786;22.760;2023-11-21T12:20:16;8.90;;;5.40;;
58661;SDS011;44432;49.786;22.760;2023-11-21T12:22:47;7.90;;;5.00;;
58661;SDS011;44432;49.786;22.760;2023-11-21T12:25:17;8.60;;;4.80;;
58661;SDS011;44432;49.786;22.760;2023-11-21T12:27:46;9.00;;;5.10;;
58661;SDS011;44432;49.786;22.760;2023-11-21T12:30:17;8.90;;;5.80;;
58661;SDS011;44432;49.786;22.760;2023-11-21T12:32:49;6.60;;;4.30;;
58661;SDS011;44432;49.786;22.760;2023-11-21T12:35:18;8.20;;;4.70;;
58661;SDS011;44432;49.786;22.760;2023-11-21T12:37:48;10.20;;;5.90;;
58661;SDS011;44432;49.786;22.760;2023-11-21T12:40:18;10.90;;;5.40;;
58661;SDS011;44432;49.786;22.760;2023-11-21T12:42:51;10.00;;;5.20;;
58661;SDS011;44432;49.786;22.760;2023-11-21T12:45:21;10.40;;;5.90;;
58661;SDS011;44432;49.786;22.760;2023-11-21T12:47:53;15.40;;;9.10;;
58661;SDS011;44432;49.786;22.760;2023-11-21T12:50:24;10.60;;;7.50;;
58661;SDS011;44432;49.786;22.760;2023-11-21T12:52:58;12.10;;;7.30;;
58661;SDS011;44432;49.786;22.760;2023-11-21T12:55:30;11.20;;;6.80;;
58661;SDS011;44432;49.786;22.760;2023-11-21T12:58:01;9.80;;;5.70;;
58661;SDS011;44432;49.786;22.760;2023-11-21T13:00:36;9.30;;;5.30;;
58661;SDS011;44432;49.786;22.760;2023-11-21T13:03:06;13.20;;;7.40;;
58661;SDS011;44432;49.786;22.760;2023-11-21T13:05:39;12.10;;;7.10;;
58661;SDS011;44432;49.786;22.760;2023-11-21T13:08:11;15.90;;;9.70;;
58661;SDS011;44432;49.786;22.760;2023-11-21T13:10:44;10.40;;;7.00;;
58661;SDS011;44432;49.786;22.760;2023-11-21T13:13:13;9.60;;;6.70;;
58661;SDS011;44432;49.786;22.760;2023-11-21T13:15:48;8.40;;;5.20;;
58661;SDS011;44432;49.786;22.760;2023-11-21T13:18:17;7.40;;;4.80;;
58661;SDS011;44432;49.786;22.760;2023-11-21T13:20:48;8.40;;;5.00;;
58661;SDS011;44432;49.786;22.760;2023-11-21T13:23:17;10.60;;;5.40;;
58661;SDS011;44432;49.786;22.760;2023-11-21T13:25:45;6.50;;;4.30;;
58661;SDS011;44432;49.786;22.760;2023-11-21T13:28:15;8.60;;;4.90;;
58661;SDS011;44432;49.786;22.760;2023-11-21T13:30:45;7.30;;;4.10;;
58661;SDS011;44432;49.786;22.760;2023-11-21T13:33:13;4.30;;;2.60;;
58661;SDS011;44432;49.786;22.760;2023-11-21T13:35:44;4.70;;;2.80;;
58661;SDS011;44432;49.786;22.760;2023-11-21T13:38:15;5.00;;;3.10;;
58661;SDS011;44432;49.786;22.760;2023-11-21T13:40:47;9.50;;;4.60;;
58661;SDS011;44432;49.786;22.760;2023-11-21T13:43:17;10.80;;;4.10;;
58661;SDS011;44432;49.786;22.760;2023-11-21T13:45:47;15.40;;;4.70;;
58661;SDS011;44432;49.786;22.760;2023-11-21T13:48:19;6.60;;;3.80;;
58661;SDS011;44432;49.786;22.760;2023-11-21T13:50:58;7.40;;;3.70;;
58661;SDS011;44432;49.786;22.760;2023-11-21T13:53:35;8.90;;;4.40;;
58661;SDS011;44432;49.786;22.760;2023-11-21T13:56:05;7.80;;;4.10;;
58661;SDS011;44432;49.786;22.760;2023-11-21T13:58:35;11.50;;;5.10;;
58661;SDS011;44432;49.786;22.760;2023-11-21T14:01:11;6.10;;;4.10;;
58661;SDS011;44432;49.786;22.760;2023-11-21T14:03:59;7.60;;;5.20;;
58661;SDS011;44432;49.786;22.760;2023-11-21T14:06:35;7.80;;;5.60;;
58661;SDS011;44432;49.786;22.760;2023-11-21T14:09:14;10.70;;;6.70;;
58661;SDS011;44432;49.786;22.760;2023-11-21T14:11:50;14.40;;;7.80;;
58661;SDS011;44432;49.786;22.760;2023-11-21T14:14:19;10.80;;;7.40;;
58661;SDS011;44432;49.786;22.760;2023-11-21T14:16:48;11.70;;;7.90;;
58661;SDS011;44432;49.786;22.760;2023-11-21T14:19:18;11.40;;;8.40;;
58661;SDS011;44432;49.786;22.760;2023-11-21T14:21:47;15.00;;;10.30;;
58661;SDS011;44432;49.786;22.760;2023-11-21T14:24:16;12.00;;;9.00;;
58661;SDS011;44432;49.786;22.760;2023-11-21T14:26:45;12.90;;;9.20;;
58661;SDS011;44432;49.786;22.760;2023-11-21T14:29:15;13.50;;;9.50;;
58661;SDS011;44432;49.786;22.760;2023-11-21T14:31:46;15.00;;;10.60;;
58661;SDS011;44432;49.786;22.760;2023-11-21T14:34:17;14.70;;;11.40;;
58661;SDS011;44432;49.786;22.760;2023-11-21T14:36:45;16.00;;;11.70;;
58661;SDS011;44432;49.786;22.760;2023-11-21T14:39:15;14.40;;;10.50;;
58661;SDS011;44432;49.786;22.760;2023-11-21T14:41:50;15.10;;;10.20;;
58661;SDS011;44432;49.786;22.760;2023-11-21T14:44:19;14.20;;;10.30;;